Terminal Aerodrome Forecast
Issued by NWS

Home | Current Version | Previous Version | Text Only | Print | Product List | Glossary On
Versions: 1 2 3 4 5 6 7 8 9 10 11 12 13
992
FTUS43 KOAX 260531
TAFBFF
TAF
KBFF 260531Z 2606/2706 34008KT P6SM BKN090
     FM261500 12011G22KT P6SM BKN060
     FM262300 09014KT P6SM VCTS BKN040CB=

USA.gov is the U.S. government's official web portal to all federal, state and local government web resources and services.